北京 の空港の天気 - METARとTAF

北京首都国際空港 ( ZBAA / PEK ) - 中国 北京市
飛行場実況気象(Metar)
観測時間11/18 01:30 CST (11/17 17:30 UTC)
風向・風速不定 1m/s
視程10km以上
天気現象
なし
気温-1℃
湿度74%
気圧1022hPa
METARZBAA 171730Z VRB01MPS CAVOK M01/M05 Q1022 NOSIG
過去の天気等 Google飛行場航空写真 Wunderground天気予報

過去48時間のMETAR

飛行場予報(TAF)
発表時間: 11/17 23:20 CST (11/17 15:20 UTC)
予報対象時間: 18日2時 CST ~ 19日2時 CST
風向・風速北北西 4m/s
視程10km以上
なし
TAF ZBAA 171520Z 1718/1818 33004MPS CAVOK TX09/1807Z TNM03/21Z